createdAt,value
2018-12-22T00:00:09.524Z,16.00
2018-12-22T00:01:10.049Z,16.00
2018-12-22T00:02:09.511Z,16.00
2018-12-22T00:03:09.532Z,16.00
2018-12-22T00:04:09.477Z,16.00
2018-12-22T00:05:09.474Z,16.00
2018-12-22T00:06:09.462Z,16.00
2018-12-22T00:07:09.454Z,16.00
2018-12-22T00:08:09.452Z,16.00
2018-12-22T00:09:09.463Z,16.00
2018-12-22T00:10:09.420Z,16.00
2018-12-22T00:11:09.414Z,16.00
2018-12-22T00:12:09.403Z,16.00
2018-12-22T00:13:09.388Z,16.00
2018-12-22T00:14:20.614Z,16.00
2018-12-22T00:15:16.354Z,16.00
2018-12-22T00:16:10.091Z,16.00
2018-12-22T00:17:09.350Z,16.00
2018-12-22T00:18:09.338Z,16.00
2018-12-22T00:19:16.315Z,16.00
2018-12-22T00:20:09.351Z,16.00
2018-12-22T00:21:09.305Z,16.00
2018-12-22T00:22:09.311Z,16.00
2018-12-22T00:23:09.296Z,16.00
2018-12-22T00:24:09.292Z,16.00
2018-12-22T00:25:09.266Z,16.00
2018-12-22T00:26:09.293Z,16.00
2018-12-22T00:27:09.249Z,16.00
2018-12-22T00:28:09.236Z,16.00
2018-12-22T00:29:09.221Z,16.00
2018-12-22T00:30:09.231Z,16.00
2018-12-22T00:31:09.209Z,16.00
2018-12-22T00:32:09.365Z,16.00
2018-12-22T00:33:09.185Z,16.00
2018-12-22T00:34:09.177Z,16.00
2018-12-22T00:35:09.170Z,16.00
2018-12-22T00:36:10.102Z,16.00
2018-12-22T00:37:09.140Z,16.00
2018-12-22T00:38:09.642Z,16.00
2018-12-22T00:39:09.120Z,16.00
2018-12-22T00:40:10.099Z,16.00
2018-12-22T00:41:09.119Z,16.00
2018-12-22T00:42:09.096Z,16.00
2018-12-22T00:43:09.079Z,16.00
2018-12-22T00:44:09.647Z,16.00
2018-12-22T00:45:09.065Z,16.00
2018-12-22T00:46:09.602Z,16.00
2018-12-22T00:47:09.075Z,16.00
2018-12-22T00:48:09.052Z,16.00
2018-12-22T00:49:09.596Z,16.00
2018-12-22T00:50:20.164Z,16.00
2018-12-22T00:51:15.988Z,16.00
2018-12-22T00:52:09.026Z,16.00
2018-12-22T00:53:09.637Z,16.00
2018-12-22T00:54:08.990Z,16.00
2018-12-22T00:55:09.634Z,16.00
2018-12-22T00:56:09.009Z,16.00
2018-12-22T00:57:09.633Z,16.00
2018-12-22T00:58:08.945Z,16.00
2018-12-22T00:59:09.022Z,16.00
2018-12-22T01:00:08.910Z,16.00
2018-12-22T01:01:09.052Z,16.00
2018-12-22T01:02:09.180Z,16.00
2018-12-22T01:03:08.881Z,16.00
2018-12-22T01:04:09.634Z,16.00
2018-12-22T01:05:08.867Z,16.00
2018-12-22T01:06:08.882Z,16.00
2018-12-22T01:07:09.636Z,16.00
2018-12-22T01:08:09.636Z,16.00
2018-12-22T01:09:08.956Z,16.00
2018-12-22T01:10:08.810Z,16.00
2018-12-22T01:11:09.656Z,16.00
2018-12-22T01:12:08.786Z,16.00
2018-12-22T01:13:08.803Z,16.00
2018-12-22T01:14:08.808Z,16.00
2018-12-22T01:15:08.850Z,16.00
2018-12-22T01:16:08.792Z,16.00
2018-12-22T01:17:08.734Z,16.00
2018-12-22T01:18:08.740Z,16.00
2018-12-22T01:19:08.718Z,16.00
2018-12-22T01:20:08.737Z,16.00
2018-12-22T01:21:08.697Z,16.00
2018-12-22T01:22:18.826Z,16.00
2018-12-22T01:23:08.678Z,16.00
2018-12-22T01:24:08.665Z,16.00
2018-12-22T01:25:08.653Z,16.00
2018-12-22T01:26:08.670Z,16.00
2018-12-22T01:27:08.636Z,16.00
2018-12-22T01:28:08.621Z,16.00
2018-12-22T01:29:08.624Z,16.00
2018-12-22T01:30:08.601Z,16.00
2018-12-22T01:31:08.592Z,16.00
2018-12-22T01:32:08.620Z,16.00
2018-12-22T01:33:08.573Z,16.00
2018-12-22T01:34:08.571Z,16.00
2018-12-22T01:35:08.547Z,16.00
2018-12-22T01:36:08.540Z,16.00
2018-12-22T01:37:08.536Z,16.00
2018-12-22T01:38:08.554Z,16.00
2018-12-22T01:39:08.506Z,16.00
2018-12-22T01:40:08.517Z,16.00
2018-12-22T01:41:08.490Z,16.00
2018-12-22T01:42:08.476Z,16.00
2018-12-22T01:43:08.472Z,16.00
2018-12-22T01:44:08.499Z,16.00
2018-12-22T01:45:08.445Z,16.00
2018-12-22T01:46:08.449Z,16.00
2018-12-22T01:47:08.425Z,16.00
2018-12-22T01:48:08.418Z,16.00
2018-12-22T01:49:08.409Z,16.00
2018-12-22T01:50:09.148Z,16.00
2018-12-22T01:51:08.386Z,16.00
2018-12-22T01:52:08.394Z,16.00
2018-12-22T01:53:20.112Z,16.00
2018-12-22T01:54:08.354Z,16.00
2018-12-22T01:55:08.347Z,16.00
2018-12-22T01:56:08.366Z,16.00
2018-12-22T01:57:08.333Z,16.00
2018-12-22T01:58:08.312Z,16.00
2018-12-22T01:59:08.305Z,16.00
2018-12-22T02:00:08.303Z,16.00
2018-12-22T02:01:08.279Z,16.00
2018-12-22T02:02:08.323Z,16.00
2018-12-22T02:03:08.263Z,16.00
2018-12-22T02:04:08.248Z,16.00
2018-12-22T02:05:08.251Z,16.00
2018-12-22T02:06:08.229Z,16.00
2018-12-22T02:07:08.218Z,16.00
2018-12-22T02:08:08.255Z,16.00
2018-12-22T02:09:08.203Z,16.00
2018-12-22T02:10:08.191Z,16.00
2018-12-22T02:11:08.192Z,16.00
2018-12-22T02:12:08.170Z,16.00
2018-12-22T02:13:08.154Z,16.00
2018-12-22T02:14:08.322Z,16.00
2018-12-22T02:15:08.135Z,16.00
2018-12-22T02:16:08.126Z,16.00
2018-12-22T02:17:08.131Z,16.00
2018-12-22T02:18:08.107Z,16.00
2018-12-22T02:19:08.095Z,16.00
2018-12-22T02:20:08.120Z,16.00
2018-12-22T02:21:08.077Z,16.00
2018-12-22T02:22:08.064Z,16.00
2018-12-22T02:23:08.067Z,16.00
2018-12-22T02:24:18.603Z,16.00
2018-12-22T02:25:08.039Z,16.00
2018-12-22T02:26:08.064Z,16.00
2018-12-22T02:27:08.016Z,16.00
2018-12-22T02:28:08.002Z,16.00
2018-12-22T02:29:08.015Z,16.00
2018-12-22T02:30:07.991Z,16.00
2018-12-22T02:31:08.090Z,16.00
2018-12-22T02:32:08.171Z,16.00
2018-12-22T02:33:07.958Z,16.00
2018-12-22T02:34:07.942Z,16.00
2018-12-22T02:35:07.930Z,16.00
2018-12-22T02:36:07.928Z,16.00
2018-12-22T02:37:07.934Z,16.00
2018-12-22T02:38:07.939Z,16.00
2018-12-22T02:39:07.892Z,16.00
2018-12-22T02:40:07.880Z,16.00
2018-12-22T02:41:07.869Z,16.00
2018-12-22T02:42:07.859Z,16.00
2018-12-22T02:43:07.864Z,16.00
2018-12-22T02:44:07.877Z,16.00
2018-12-22T02:45:07.827Z,16.00
2018-12-22T02:46:07.816Z,16.00
2018-12-22T02:47:07.807Z,16.00
2018-12-22T02:48:07.793Z,16.00
2018-12-22T02:49:07.814Z,16.00
2018-12-22T02:50:07.808Z,16.00
2018-12-22T02:51:07.763Z,16.00
2018-12-22T02:52:07.753Z,16.00
2018-12-22T02:53:07.745Z,16.00
2018-12-22T02:54:07.735Z,16.00
2018-12-22T02:55:20.275Z,16.00
2018-12-22T02:56:08.232Z,16.00
2018-12-22T02:57:07.706Z,16.00
2018-12-22T02:58:07.695Z,16.00
2018-12-22T02:59:07.704Z,16.00
2018-12-22T03:00:07.675Z,16.00
2018-12-22T03:01:07.702Z,16.00
2018-12-22T03:02:07.673Z,16.00
2018-12-22T03:03:07.640Z,16.00
2018-12-22T03:04:07.634Z,16.00
2018-12-22T03:05:07.626Z,16.00
2018-12-22T03:06:07.612Z,16.00
2018-12-22T03:07:07.633Z,16.00
2018-12-22T03:08:07.590Z,16.00
2018-12-22T03:09:07.689Z,16.00
2018-12-22T03:10:07.574Z,16.00
2018-12-22T03:11:07.557Z,16.00
2018-12-22T03:12:07.546Z,16.00
2018-12-22T03:13:07.594Z,16.00
2018-12-22T03:14:07.527Z,16.00
2018-12-22T03:15:07.516Z,16.00
2018-12-22T03:16:07.507Z,16.00
2018-12-22T03:17:07.500Z,16.00
2018-12-22T03:18:07.487Z,16.00
2018-12-22T03:19:07.524Z,16.00
2018-12-22T03:20:07.467Z,16.00
2018-12-22T03:21:07.463Z,16.00
2018-12-22T03:22:07.449Z,16.00
2018-12-22T03:23:07.434Z,16.00
2018-12-22T03:24:07.423Z,16.00
2018-12-22T03:25:07.502Z,16.00
2018-12-22T03:26:17.954Z,16.00
2018-12-22T03:27:15.280Z,16.00
2018-12-22T03:28:14.365Z,16.00
2018-12-22T03:29:15.543Z,16.00
2018-12-22T03:30:08.413Z,16.00
2018-12-22T03:31:07.354Z,16.00
2018-12-22T03:32:07.352Z,16.00
2018-12-22T03:33:07.340Z,16.00
2018-12-22T03:34:07.322Z,16.00
2018-12-22T03:35:07.308Z,16.00
2018-12-22T03:36:07.352Z,16.00
2018-12-22T03:37:07.293Z,16.00
2018-12-22T03:38:07.290Z,16.00
2018-12-22T03:39:07.272Z,16.00
2018-12-22T03:40:07.258Z,16.00
2018-12-22T03:41:07.262Z,16.00
2018-12-22T03:42:07.276Z,16.00
2018-12-22T03:43:07.230Z,16.00
2018-12-22T03:44:07.223Z,16.00
2018-12-22T03:45:07.209Z,16.00
2018-12-22T03:46:07.198Z,16.00
2018-12-22T03:47:07.192Z,16.00
2018-12-22T03:48:07.218Z,16.00
2018-12-22T03:49:07.165Z,16.00
2018-12-22T03:50:07.156Z,16.00
2018-12-22T03:51:07.148Z,16.00
2018-12-22T03:52:07.143Z,16.00
2018-12-22T03:53:07.126Z,16.00
2018-12-22T03:54:07.209Z,16.00
2018-12-22T03:55:07.103Z,16.00
2018-12-22T03:56:07.096Z,16.00
2018-12-22T03:57:07.082Z,16.00
2018-12-22T03:58:07.078Z,16.00
2018-12-22T03:59:24.720Z,16.00
2018-12-22T04:00:14.037Z,16.00
2018-12-22T04:01:07.042Z,16.00
2018-12-22T04:02:07.030Z,16.00
2018-12-22T04:03:07.028Z,16.00
2018-12-22T04:04:07.019Z,16.00
2018-12-22T04:05:07.041Z,16.00
2018-12-22T04:06:06.990Z,16.00
2018-12-22T04:07:06.993Z,16.00
2018-12-22T04:08:06.992Z,16.00
2018-12-22T04:09:09.024Z,16.00
2018-12-22T04:10:06.967Z,16.00
2018-12-22T04:11:06.982Z,16.00
2018-12-22T04:12:06.927Z,16.00
2018-12-22T04:13:06.925Z,16.00
2018-12-22T04:14:06.906Z,16.00
2018-12-22T04:15:06.902Z,16.00
2018-12-22T04:16:06.893Z,16.00
2018-12-22T04:17:07.077Z,16.00
2018-12-22T04:18:06.870Z,16.00
2018-12-22T04:19:06.863Z,16.00
2018-12-22T04:20:06.855Z,16.00
2018-12-22T04:21:06.928Z,16.00
2018-12-22T04:22:06.832Z,16.00
2018-12-22T04:23:06.865Z,16.00
2018-12-22T04:24:06.814Z,16.00
2018-12-22T04:25:06.823Z,16.00
2018-12-22T04:26:06.783Z,16.00
2018-12-22T04:27:06.779Z,16.00
2018-12-22T04:28:06.762Z,16.00
2018-12-22T04:29:06.793Z,16.00
2018-12-22T04:30:06.745Z,16.00
2018-12-22T04:31:17.501Z,16.00
2018-12-22T04:32:06.723Z,16.00
2018-12-22T04:33:06.714Z,16.00
2018-12-22T04:34:06.707Z,16.00
2018-12-22T04:35:06.730Z,16.00
2018-12-22T04:36:06.697Z,16.00
2018-12-22T04:37:06.674Z,16.00
2018-12-22T04:38:06.666Z,16.00
2018-12-22T04:39:06.661Z,16.00
2018-12-22T04:40:06.646Z,16.00
2018-12-22T04:41:06.674Z,16.00
2018-12-22T04:42:06.628Z,16.00
2018-12-22T04:43:06.613Z,16.00
2018-12-22T04:44:06.615Z,16.00
2018-12-22T04:45:06.594Z,16.00
2018-12-22T04:46:06.576Z,16.00
2018-12-22T04:47:06.612Z,16.00
2018-12-22T04:48:06.565Z,16.00
2018-12-22T04:49:06.547Z,16.00
2018-12-22T04:50:06.556Z,16.00
2018-12-22T04:51:06.525Z,16.00
2018-12-22T04:52:06.517Z,16.00
2018-12-22T04:53:06.584Z,16.00
2018-12-22T04:54:06.499Z,16.00
2018-12-22T04:55:06.485Z,16.00
2018-12-22T04:56:06.487Z,16.00
2018-12-22T04:57:06.471Z,16.00
2018-12-22T04:58:06.461Z,16.00
2018-12-22T04:59:06.483Z,16.00
2018-12-22T05:00:06.438Z,12.00
2018-12-22T05:01:06.430Z,16.00
2018-12-22T05:02:16.805Z,16.00
2018-12-22T05:03:06.405Z,16.00
2018-12-22T05:04:06.397Z,16.00
2018-12-22T05:05:06.404Z,16.00
2018-12-22T05:06:06.374Z,16.00
2018-12-22T05:07:06.454Z,16.00
2018-12-22T05:08:06.358Z,16.00
2018-12-22T05:09:06.348Z,16.00
2018-12-22T05:10:06.339Z,16.00
2018-12-22T05:11:06.357Z,16.00
2018-12-22T05:12:06.315Z,16.00
2018-12-22T05:13:06.300Z,16.00
2018-12-22T05:14:06.298Z,16.00
2018-12-22T05:15:06.289Z,16.00
2018-12-22T05:16:06.276Z,16.00
2018-12-22T05:17:06.413Z,16.00
2018-12-22T05:18:06.252Z,16.00
2018-12-22T05:19:06.240Z,16.00
2018-12-22T05:20:06.227Z,16.00
2018-12-22T05:21:06.227Z,16.00
2018-12-22T05:22:06.209Z,16.00
2018-12-22T05:23:06.234Z,16.00
2018-12-22T05:24:06.190Z,16.00
2018-12-22T05:25:06.179Z,16.00
2018-12-22T05:26:06.285Z,16.00
2018-12-22T05:27:06.164Z,16.00
2018-12-22T05:28:06.146Z,16.00
2018-12-22T05:29:06.221Z,16.00
2018-12-22T05:30:06.124Z,16.00
2018-12-22T05:31:06.116Z,16.00
2018-12-22T05:32:06.107Z,16.00
2018-12-22T05:33:16.489Z,16.00
2018-12-22T05:34:06.090Z,16.00
2018-12-22T05:35:06.118Z,16.00
2018-12-22T05:36:06.069Z,16.00
2018-12-22T05:37:06.053Z,16.00
2018-12-22T05:38:06.054Z,16.00
2018-12-22T05:39:06.033Z,16.00
2018-12-22T05:40:06.023Z,16.00
2018-12-22T05:41:06.188Z,16.00
2018-12-22T05:42:06.002Z,16.00
2018-12-22T05:43:05.989Z,16.00
2018-12-22T05:44:05.983Z,16.00
2018-12-22T05:45:05.972Z,16.00
2018-12-22T05:46:05.966Z,16.00
2018-12-22T05:47:06.125Z,16.00
2018-12-22T05:48:05.941Z,16.00
2018-12-22T05:49:05.931Z,16.00
2018-12-22T05:50:05.920Z,16.00
2018-12-22T05:51:05.909Z,16.00
2018-12-22T05:52:05.907Z,16.00
2018-12-22T05:53:05.974Z,16.00
2018-12-22T05:54:05.876Z,16.00
2018-12-22T05:55:05.871Z,16.00
2018-12-22T05:56:05.860Z,16.00
2018-12-22T05:57:05.844Z,16.00
2018-12-22T05:58:05.850Z,16.00
2018-12-22T05:59:05.865Z,16.00
2018-12-22T06:00:05.820Z,16.00
2018-12-22T06:01:05.809Z,16.00
2018-12-22T06:02:05.794Z,16.00
2018-12-22T06:03:05.787Z,16.00
2018-12-22T06:04:15.937Z,12.00
2018-12-22T06:05:05.764Z,16.00
2018-12-22T06:06:05.757Z,16.00
2018-12-22T06:07:05.743Z,16.00
2018-12-22T06:08:05.730Z,16.00
2018-12-22T06:09:05.743Z,16.00
2018-12-22T06:10:05.747Z,16.00
2018-12-22T06:11:05.699Z,16.00
2018-12-22T06:12:05.712Z,16.00
2018-12-22T06:13:05.682Z,16.00
2018-12-22T06:14:05.671Z,12.00
2018-12-22T06:15:05.660Z,12.00
2018-12-22T06:16:05.686Z,12.00
2018-12-22T06:17:05.643Z,12.00
2018-12-22T06:18:05.629Z,16.00
2018-12-22T06:19:05.625Z,16.00
2018-12-22T06:20:05.612Z,16.00
2018-12-22T06:21:05.602Z,16.00
2018-12-22T06:22:05.624Z,16.00
2018-12-22T06:23:05.591Z,16.00
2018-12-22T06:24:05.566Z,16.00
2018-12-22T06:25:05.566Z,16.00
2018-12-22T06:26:05.552Z,20.00
2018-12-22T06:27:05.536Z,20.00
2018-12-22T06:28:05.565Z,16.00
2018-12-22T06:29:05.516Z,16.00
2018-12-22T06:30:09.380Z,16.00
2018-12-22T06:31:05.496Z,20.00
2018-12-22T06:32:05.486Z,20.00
2018-12-22T06:33:05.479Z,20.00
2018-12-22T06:34:05.582Z,20.00
2018-12-22T06:35:16.194Z,16.00
2018-12-22T06:36:05.444Z,20.00
2018-12-22T06:37:05.439Z,16.00
2018-12-22T06:38:05.424Z,20.00
2018-12-22T06:39:06.395Z,20.00
2018-12-22T06:40:05.453Z,20.00
2018-12-22T06:41:05.399Z,24.00
2018-12-22T06:42:05.381Z,24.00
2018-12-22T06:43:05.375Z,20.00
2018-12-22T06:44:05.376Z,28.00
2018-12-22T06:45:05.358Z,28.00
2018-12-22T06:46:12.491Z,28.00
2018-12-22T06:47:05.328Z,36.00
2018-12-22T06:48:12.307Z,32.00
2018-12-22T06:49:05.309Z,32.00
2018-12-22T06:50:05.310Z,36.00
2018-12-22T06:51:05.332Z,36.00
2018-12-22T06:52:05.311Z,40.00
2018-12-22T06:53:05.267Z,44.00
2018-12-22T06:54:05.279Z,48.00
2018-12-22T06:55:12.251Z,52.00
2018-12-22T06:56:05.242Z,56.00
2018-12-22T06:57:05.227Z,60.00
2018-12-22T06:58:12.599Z,64.00
2018-12-22T06:59:12.196Z,72.00
2018-12-22T07:00:05.194Z,76.00
2018-12-22T07:01:05.192Z,84.00
2018-12-22T07:02:05.196Z,88.00
2018-12-22T07:03:05.169Z,96.00
2018-12-22T07:04:05.209Z,104.00
2018-12-22T07:05:05.146Z,108.00
2018-12-22T07:06:05.142Z,116.00
2018-12-22T07:07:05.128Z,128.00
2018-12-22T07:08:05.119Z,136.00
2018-12-22T07:09:05.104Z,148.00
2018-12-22T07:10:05.131Z,156.00
2018-12-22T07:11:05.127Z,164.00
2018-12-22T07:12:05.078Z,176.00
2018-12-22T07:13:05.162Z,184.00
2018-12-22T07:14:05.060Z,196.00
2018-12-22T07:15:05.045Z,208.00
2018-12-22T07:16:05.076Z,224.00
2018-12-22T07:17:05.040Z,236.00
2018-12-22T07:18:05.008Z,252.00
2018-12-22T07:19:05.007Z,264.00
2018-12-22T07:20:05.515Z,280.00
2018-12-22T07:21:04.980Z,296.00
2018-12-22T07:22:05.007Z,304.00
2018-12-22T07:23:04.956Z,316.00
2018-12-22T07:24:04.966Z,332.00
2018-12-22T07:25:04.938Z,348.00
2018-12-22T07:26:04.932Z,372.00
2018-12-22T07:27:04.919Z,376.00
2018-12-22T07:28:04.948Z,396.00
2018-12-22T07:29:04.899Z,412.00
2018-12-22T07:30:15.639Z,424.00
2018-12-22T07:31:04.876Z,440.00
2018-12-22T07:32:04.867Z,452.00
2018-12-22T07:33:04.858Z,452.00
2018-12-22T07:34:05.017Z,464.00
2018-12-22T07:35:04.847Z,484.00
2018-12-22T07:36:04.825Z,504.00
2018-12-22T07:37:04.813Z,524.00
2018-12-22T07:38:04.804Z,532.00
2018-12-22T07:39:04.793Z,560.00
2018-12-22T07:40:04.949Z,572.00
2018-12-22T07:41:04.775Z,580.00
2018-12-22T07:42:04.760Z,604.00
2018-12-22T07:43:04.770Z,624.00
2018-12-22T07:44:04.744Z,640.00
2018-12-22T07:45:04.736Z,676.00
2018-12-22T07:46:04.764Z,684.00
2018-12-22T07:47:04.714Z,704.00
2018-12-22T07:48:04.712Z,720.00
2018-12-22T07:49:04.708Z,728.00
2018-12-22T07:50:04.680Z,744.00
2018-12-22T07:51:04.676Z,772.00
2018-12-22T07:52:04.829Z,792.00
2018-12-22T07:53:04.650Z,788.00
2018-12-22T07:54:04.637Z,812.00
2018-12-22T07:55:04.639Z,840.00
2018-12-22T07:56:04.614Z,880.00
2018-12-22T07:57:04.612Z,912.00
2018-12-22T07:58:04.637Z,940.00
2018-12-22T07:59:04.583Z,952.00
2018-12-22T08:00:04.575Z,920.00
2018-12-22T08:01:15.467Z,952.00
2018-12-22T08:02:04.552Z,944.00
2018-12-22T08:03:04.543Z,924.00
2018-12-22T08:04:11.601Z,916.00
2018-12-22T08:05:04.520Z,952.00
2018-12-22T08:06:12.116Z,972.00
2018-12-22T08:07:11.487Z,968.00
2018-12-22T08:08:11.786Z,1032.00
2018-12-22T08:09:04.482Z,1028.00
2018-12-22T08:10:11.679Z,1028.00
2018-12-22T08:11:11.456Z,1036.00
2018-12-22T08:12:04.454Z,1044.00
2018-12-22T08:13:04.443Z,1032.00
2018-12-22T08:14:04.435Z,1028.00
2018-12-22T08:15:04.422Z,1024.00
2018-12-22T08:16:04.458Z,1024.00
2018-12-22T08:17:04.397Z,1040.00
2018-12-22T08:18:04.389Z,1036.00
2018-12-22T08:19:04.386Z,1052.00
2018-12-22T08:20:11.359Z,1040.00
2018-12-22T08:21:04.357Z,1036.00
2018-12-22T08:22:04.521Z,1068.00
2018-12-22T08:23:04.343Z,1088.00
2018-12-22T08:24:04.336Z,1084.00
2018-12-22T08:25:04.335Z,1124.00
2018-12-22T08:26:04.362Z,1116.00
2018-12-22T08:27:04.294Z,1160.00
2018-12-22T08:28:04.328Z,1152.00
2018-12-22T08:29:04.279Z,1164.00
2018-12-22T08:30:04.262Z,1168.00
2018-12-22T08:31:04.267Z,1172.00
2018-12-22T08:32:04.254Z,1180.00
2018-12-22T08:33:04.238Z,1216.00
2018-12-22T08:34:04.259Z,1216.00
2018-12-22T08:35:04.214Z,1204.00
2018-12-22T08:36:04.205Z,1204.00
2018-12-22T08:37:04.191Z,1208.00
2018-12-22T08:38:04.186Z,1228.00
2018-12-22T08:39:04.174Z,1228.00
2018-12-22T08:40:04.198Z,1224.00
2018-12-22T08:41:04.154Z,1244.00
2018-12-22T08:42:04.144Z,1244.00
2018-12-22T08:43:04.137Z,1252.00
2018-12-22T08:44:04.136Z,1260.00
2018-12-22T08:45:04.108Z,1252.00
2018-12-22T08:46:04.152Z,1248.00
2018-12-22T08:47:04.090Z,1248.00
2018-12-22T08:48:04.079Z,1248.00
2018-12-22T08:49:04.657Z,1232.00
2018-12-22T08:50:08.929Z,1272.00
2018-12-22T08:52:17.178Z,1332.00
2018-12-22T08:53:17.130Z,1340.00
2018-12-22T08:54:17.120Z,1332.00
2018-12-22T08:55:17.113Z,1284.00
2018-12-22T08:56:17.117Z,1288.00
2018-12-22T08:57:17.090Z,1256.00
2018-12-22T08:58:17.253Z,1276.00
2018-12-22T08:59:17.082Z,1324.00
2018-12-22T09:00:17.059Z,1408.00
2018-12-22T09:01:17.052Z,1488.00
2018-12-22T09:02:17.042Z,1512.00
2018-12-22T09:03:17.032Z,1532.00
2018-12-22T09:04:17.073Z,1540.00
2018-12-22T09:05:17.013Z,1536.00
2018-12-22T09:06:17.000Z,1536.00
2018-12-22T09:07:17.068Z,1536.00
2018-12-22T09:08:16.979Z,1544.00
2018-12-22T09:09:16.975Z,1540.00
2018-12-22T09:10:17.010Z,1528.00
2018-12-22T09:11:16.949Z,1500.00
2018-12-22T09:12:16.942Z,1488.00
2018-12-22T09:13:20.788Z,1472.00
2018-12-22T09:14:16.926Z,1448.00
2018-12-22T09:15:16.909Z,1464.00
2018-12-22T09:16:17.037Z,1452.00
2018-12-22T09:17:16.896Z,1456.00
2018-12-22T09:18:16.890Z,1500.00
2018-12-22T09:19:16.869Z,1520.00
2018-12-22T09:20:16.864Z,1536.00
2018-12-22T09:21:16.855Z,1544.00
2018-12-22T09:22:24.054Z,1536.00
2018-12-22T09:23:16.831Z,1464.00
2018-12-22T09:24:16.829Z,1496.00
2018-12-22T09:25:16.813Z,1552.00
2018-12-22T09:26:16.802Z,1564.00
2018-12-22T09:27:16.805Z,1592.00
2018-12-22T09:28:16.826Z,1596.00
2018-12-22T09:29:16.775Z,1600.00
2018-12-22T09:30:16.768Z,1640.00
2018-12-22T09:31:16.752Z,1656.00
2018-12-22T09:32:16.745Z,1688.00
2018-12-22T09:33:16.728Z,1756.00
2018-12-22T09:34:16.761Z,1788.00
2018-12-22T09:35:16.720Z,1780.00
2018-12-22T09:36:16.698Z,1792.00
2018-12-22T09:37:16.687Z,1792.00
2018-12-22T09:38:16.681Z,1760.00
2018-12-22T09:39:16.669Z,1760.00
2018-12-22T09:40:16.702Z,1760.00
2018-12-22T09:41:16.656Z,1776.00
2018-12-22T09:42:16.638Z,1740.00
2018-12-22T09:43:16.628Z,1700.00
2018-12-22T09:44:16.621Z,1716.00
2018-12-22T09:45:16.613Z,1720.00
2018-12-22T09:46:16.642Z,1708.00
2018-12-22T09:47:16.596Z,1748.00
2018-12-22T09:48:16.578Z,1760.00
2018-12-22T09:49:16.569Z,1760.00
2018-12-22T09:50:16.561Z,1768.00
2018-12-22T09:51:16.546Z,1776.00
2018-12-22T09:52:16.711Z,1800.00
2018-12-22T09:53:27.030Z,1820.00
2018-12-22T09:54:16.519Z,1840.00
2018-12-22T09:55:16.510Z,1836.00
2018-12-22T09:56:16.496Z,1828.00
2018-12-22T09:57:16.491Z,1844.00
2018-12-22T09:58:16.516Z,1876.00
2018-12-22T09:59:16.465Z,1852.00
2018-12-22T10:00:16.536Z,1844.00
2018-12-22T10:01:16.445Z,1860.00
2018-12-22T10:02:16.436Z,1820.00
2018-12-22T10:03:16.434Z,1808.00
2018-12-22T10:04:16.456Z,1820.00
2018-12-22T10:05:16.408Z,1832.00
2018-12-22T10:06:18.538Z,1820.00
2018-12-22T10:07:16.382Z,1840.00
2018-12-22T10:08:16.378Z,1828.00
2018-12-22T10:09:16.362Z,1804.00
2018-12-22T10:10:16.395Z,1848.00
2018-12-22T10:11:16.346Z,1844.00
2018-12-22T10:12:16.450Z,1808.00
2018-12-22T10:13:16.327Z,1820.00
2018-12-22T10:14:16.312Z,1820.00
2018-12-22T10:15:16.306Z,1776.00
2018-12-22T10:16:16.467Z,1776.00
2018-12-22T10:17:16.294Z,1784.00
2018-12-22T10:18:16.271Z,1800.00
2018-12-22T10:19:16.267Z,1800.00
2018-12-22T10:20:16.250Z,1804.00
2018-12-22T10:21:16.243Z,1792.00
2018-12-22T10:22:16.270Z,1740.00
2018-12-22T10:23:16.304Z,1748.00
2018-12-22T10:24:26.937Z,1772.00
2018-12-22T10:25:16.299Z,1796.00
2018-12-22T10:26:16.192Z,1836.00
2018-12-22T10:27:16.187Z,1864.00
2018-12-22T10:28:16.217Z,1832.00
2018-12-22T10:29:16.173Z,1868.00
2018-12-22T10:30:16.151Z,1892.00
2018-12-22T10:31:18.142Z,1860.00
2018-12-22T10:32:16.139Z,1848.00
2018-12-22T10:33:16.127Z,1800.00
2018-12-22T10:34:16.136Z,1828.00
2018-12-22T10:35:16.097Z,1832.00
2018-12-22T10:36:16.090Z,1812.00
2018-12-22T10:37:16.085Z,1736.00
2018-12-22T10:38:16.071Z,1676.00
2018-12-22T10:39:16.065Z,1664.00
2018-12-22T10:40:16.073Z,1600.00
2018-12-22T10:41:16.043Z,1552.00
2018-12-22T10:42:16.032Z,1524.00
2018-12-22T10:43:16.031Z,1520.00
2018-12-22T10:44:16.008Z,1540.00
2018-12-22T10:45:16.003Z,1580.00
2018-12-22T10:46:16.009Z,1608.00
2018-12-22T10:47:15.994Z,1620.00
2018-12-22T10:48:15.972Z,1600.00
2018-12-22T10:49:15.961Z,1548.00
2018-12-22T10:50:15.954Z,1524.00
2018-12-22T10:51:24.065Z,1504.00
2018-12-22T10:52:16.966Z,1496.00
2018-12-22T10:53:15.924Z,1504.00
2018-12-22T10:54:15.907Z,1540.00
2018-12-22T10:55:25.904Z,1548.00
2018-12-22T10:56:15.888Z,1528.00
2018-12-22T10:57:15.876Z,1532.00
2018-12-22T10:58:15.905Z,1500.00
2018-12-22T10:59:15.855Z,1464.00
2018-12-22T11:00:15.859Z,1448.00
2018-12-22T11:01:15.837Z,1436.00
2018-12-22T11:02:15.831Z,1436.00
2018-12-22T11:03:15.820Z,1436.00
2018-12-22T11:04:15.821Z,1468.00
2018-12-22T11:05:15.799Z,1484.00
2018-12-22T11:06:15.789Z,1484.00
2018-12-22T11:07:15.774Z,1492.00
2018-12-22T11:08:15.775Z,1504.00
2018-12-22T11:09:15.757Z,1508.00
2018-12-22T11:10:15.780Z,1500.00
2018-12-22T11:11:15.736Z,1480.00
2018-12-22T11:12:15.729Z,1464.00
2018-12-22T11:13:15.718Z,1460.00
2018-12-22T11:14:15.708Z,1452.00
2018-12-22T11:15:15.692Z,1440.00
2018-12-22T11:16:15.727Z,1428.00
2018-12-22T11:17:15.675Z,1424.00
2018-12-22T11:18:15.665Z,1412.00
2018-12-22T11:19:15.651Z,1404.00
2018-12-22T11:20:15.652Z,1396.00
2018-12-22T11:21:15.636Z,1392.00
2018-12-22T11:22:15.801Z,1380.00
2018-12-22T11:23:20.423Z,1372.00
2018-12-22T11:24:16.605Z,1360.00
2018-12-22T11:25:15.592Z,1344.00
2018-12-22T11:26:25.448Z,1328.00
2018-12-22T11:27:15.579Z,1308.00
2018-12-22T11:28:15.609Z,1292.00
2018-12-22T11:29:16.062Z,1280.00
2018-12-22T11:30:15.549Z,1272.00
2018-12-22T11:31:15.542Z,1272.00
2018-12-22T11:32:15.520Z,1268.00
2018-12-22T11:33:15.534Z,1264.00
2018-12-22T11:34:15.549Z,1260.00
2018-12-22T11:35:15.493Z,1244.00
2018-12-22T11:36:15.482Z,1236.00
2018-12-22T11:37:15.474Z,1220.00
2018-12-22T11:38:15.471Z,1200.00
2018-12-22T11:39:15.461Z,1196.00
2018-12-22T11:40:15.510Z,1176.00
2018-12-22T11:41:15.429Z,1160.00
2018-12-22T11:42:15.422Z,1156.00
2018-12-22T11:43:15.412Z,1144.00
2018-12-22T11:44:15.403Z,1136.00
2018-12-22T11:45:15.396Z,1124.00
2018-12-22T11:46:15.557Z,1108.00
2018-12-22T11:47:15.373Z,1088.00
2018-12-22T11:48:15.359Z,1072.00
2018-12-22T11:49:15.355Z,1060.00
2018-12-22T11:50:15.338Z,1052.00
2018-12-22T11:51:15.346Z,1044.00
2018-12-22T11:52:15.529Z,1036.00
2018-12-22T11:53:15.307Z,1024.00
2018-12-22T11:54:15.300Z,1008.00
2018-12-22T11:55:15.290Z,996.00
2018-12-22T11:56:15.284Z,980.00
2018-12-22T11:57:25.752Z,960.00
2018-12-22T11:58:15.262Z,944.00
2018-12-22T11:59:15.253Z,924.00
2018-12-22T12:00:15.240Z,904.00
2018-12-22T12:01:15.233Z,880.00
2018-12-22T12:02:15.226Z,860.00
2018-12-22T12:03:15.248Z,840.00
2018-12-22T12:04:15.206Z,832.00
2018-12-22T12:05:15.190Z,820.00
2018-12-22T12:06:15.178Z,808.00
2018-12-22T12:07:15.171Z,800.00
2018-12-22T12:08:15.163Z,792.00
2018-12-22T12:09:15.181Z,784.00
2018-12-22T12:10:15.144Z,768.00
2018-12-22T12:11:15.129Z,764.00
2018-12-22T12:12:15.122Z,760.00
2018-12-22T12:13:15.104Z,748.00
2018-12-22T12:14:15.097Z,740.00
2018-12-22T12:15:15.126Z,728.00
2018-12-22T12:16:15.080Z,716.00
2018-12-22T12:17:15.068Z,696.00
2018-12-22T12:18:15.062Z,676.00
2018-12-22T12:19:15.048Z,660.00
2018-12-22T12:20:15.037Z,644.00
2018-12-22T12:21:15.238Z,632.00
2018-12-22T12:22:15.019Z,616.00
2018-12-22T12:23:15.011Z,604.00
2018-12-22T12:24:15.007Z,588.00
2018-12-22T12:25:14.984Z,572.00
2018-12-22T12:26:14.973Z,560.00
2018-12-22T12:27:15.004Z,544.00
2018-12-22T12:28:26.058Z,528.00
2018-12-22T12:29:14.942Z,512.00
2018-12-22T12:30:14.933Z,500.00
2018-12-22T12:31:14.927Z,488.00
2018-12-22T12:32:14.912Z,472.00
2018-12-22T12:33:14.986Z,452.00
2018-12-22T12:34:14.895Z,432.00
2018-12-22T12:35:14.932Z,416.00